ハルビン の空港の天気 - METARとTAF

ハルビン太平国際空港 ( ZYHB / HRB ) - 中国 黒竜江省ハルビン市
飛行場実況気象(Metar)
観測時間12/01 01:00 CST (11/30 17:00 UTC)
風向・風速西 4m/s
視程10km以上
天気現象
なし
気温-19℃
湿度65%
気圧1024hPa
METARZYHB 301700Z 26004MPS CAVOK M19/M24 Q1024 NOSIG
過去の天気等 Google飛行場航空写真 Wunderground天気予報

過去48時間のMETAR

飛行場予報(TAF)
発表時間: 11/30 23:04 CST (11/30 15:04 UTC)
予報対象時間: 1日2時 CST ~ 2日2時 CST
風向・風速西 4m/s
視程6000m
少しの雲 雲底高度 910m
TAF ZYHB 301504Z 3018/0118 26004MPS 6000 FEW030 TXM11/0106Z TNM20/3021Z